Time;durP1;ratioP1;P1;durP2;ratioP2;P2;SDS_P1;SDS_P2;PMS_P1;PMS_P2;Temp;Humidity;BMP_temperature;BMP_pressure;BME280_temperature;BME280_humidity;BME280_pressure;Samples;Min_cycle;Max_cycle;Signal;HPM_P1;HPM_P2
2023/04/19 00:00:09;;;;;;;12.95;9.18;;;7.80;99.90;;;;;;5108456;27;20043;-82
2023/04/19 00:02:35;;;;;;;12.25;9.25;;;7.80;99.90;;;;;;5109394;27;20047;-82
2023/04/19 00:05:01;;;;;;;13.90;9.63;;;7.80;99.90;;;;;;5107257;27;20099;-82
2023/04/19 00:07:27;;;;;;;13.93;9.75;;;7.80;99.90;;;;;;5110676;27;20126;-83
2023/04/19 00:09:52;;;;;;;12.57;9.05;;;7.80;99.90;;;;;;5106607;27;20142;-82
2023/04/19 00:12:18;;;;;;;11.07;8.27;;;7.70;99.90;;;;;;5107329;27;20111;-83
2023/04/19 00:14:43;;;;;;;13.48;9.70;;;7.70;99.90;;;;;;5125572;27;20684;-81
2023/04/19 00:17:10;;;;;;;12.27;9.27;;;8.00;99.90;;;;;;5107840;27;20079;-81
2023/04/19 00:19:37;;;;;;;11.98;9.15;;;8.20;99.90;;;;;;5125142;27;20472;-81
2023/04/19 00:22:02;;;;;;;16.20;8.90;;;7.70;99.90;;;;;;5105708;27;20038;-81
2023/04/19 00:24:28;;;;;;;10.88;8.40;;;7.80;99.90;;;;;;5108471;27;20055;-80
2023/04/19 00:26:54;;;;;;;11.00;8.05;;;7.70;99.90;;;;;;5108246;27;20039;-80
2023/04/19 00:29:19;;;;;;;13.52;8.82;;;7.70;99.90;;;;;;5106202;27;20362;-81
2023/04/19 00:31:45;;;;;;;13.18;8.85;;;7.60;99.90;;;;;;5108609;27;20330;-81
2023/04/19 00:34:11;;;;;;;13.65;8.48;;;7.60;99.90;;;;;;5127516;27;20042;-81
2023/04/19 00:36:36;;;;;;;10.48;8.27;;;7.60;99.90;;;;;;5075736;28;20063;-81
2023/04/19 00:39:02;;;;;;;9.23;7.82;;;7.60;99.90;;;;;;5127747;27;20054;-82
2023/04/19 00:41:28;;;;;;;11.50;8.60;;;7.60;99.90;;;;;;5094457;27;20050;-81
2023/04/19 00:43:54;;;;;;;11.32;8.60;;;7.60;99.90;;;;;;5100362;27;20047;-81
2023/04/19 00:46:20;;;;;;;11.63;8.43;;;7.60;99.90;;;;;;5109403;27;20116;-81
2023/04/19 00:48:47;;;;;;;11.38;8.75;;;7.60;99.90;;;;;;5125531;27;20717;-82
2023/04/19 00:51:13;;;;;;;10.88;8.65;;;7.60;99.90;;;;;;5106788;27;20479;-80
2023/04/19 00:53:40;;;;;;;11.50;8.57;;;7.50;99.90;;;;;;5127639;27;20126;-81
2023/04/19 00:56:05;;;;;;;11.65;8.02;;;7.50;99.90;;;;;;5090161;27;20142;-81
2023/04/19 00:58:32;;;;;;;10.48;7.97;;;7.50;99.90;;;;;;5108014;28;20472;-81
2023/04/19 01:00:58;;;;;;;10.45;7.43;;;7.50;99.90;;;;;;5108462;28;20478;-82
2023/04/19 01:03:26;;;;;;;11.13;8.35;;;7.50;99.90;;;;;;5107180;28;20047;-81
2023/04/19 01:05:52;;;;;;;12.00;8.98;;;7.50;99.90;;;;;;5092648;28;20047;-81
2023/04/19 01:08:17;;;;;;;10.38;8.07;;;7.50;99.90;;;;;;5093199;28;20370;-81
2023/04/19 01:10:43;;;;;;;15.02;8.40;;;7.50;99.90;;;;;;5126364;27;20054;-81
2023/04/19 01:13:08;;;;;;;10.10;7.32;;;7.50;99.90;;;;;;5106810;28;20129;-81
2023/04/19 01:15:35;;;;;;;11.48;8.98;;;7.50;99.90;;;;;;5111345;28;20047;-81
2023/04/19 01:18:01;;;;;;;10.98;8.27;;;7.60;99.90;;;;;;5104293;28;20062;-82
2023/04/19 01:20:27;;;;;;;10.52;8.23;;;7.50;99.90;;;;;;5126459;28;20122;-81
2023/04/19 01:22:52;;;;;;;10.68;7.80;;;7.50;99.90;;;;;;5108433;28;20215;-82
2023/04/19 01:25:18;;;;;;;11.10;8.20;;;7.40;99.90;;;;;;5107074;27;20050;-80
2023/04/19 01:27:43;;;;;;;11.48;7.50;;;7.50;99.90;;;;;;5093423;28;20381;-81
2023/04/19 01:30:09;;;;;;;9.27;7.47;;;7.50;99.90;;;;;;5109171;28;20409;-81
2023/04/19 01:32:35;;;;;;;9.45;7.72;;;7.50;99.90;;;;;;5129801;27;20099;-82
2023/04/19 01:35:00;;;;;;;11.90;7.63;;;7.50;99.90;;;;;;5127276;27;20127;-81
2023/04/19 01:37:26;;;;;;;9.13;7.70;;;7.50;99.90;;;;;;5109999;28;20077;-82
2023/04/19 01:39:52;;;;;;;10.35;8.07;;;7.40;99.90;;;;;;5109085;28;20049;-81
2023/04/19 01:42:17;;;;;;;10.80;7.57;;;7.40;99.90;;;;;;5129129;28;20161;-81
2023/04/19 01:44:43;;;;;;;10.48;7.95;;;7.50;99.90;;;;;;5126771;28;20397;-81
2023/04/19 01:47:08;;;;;;;9.82;8.30;;;7.40;99.90;;;;;;5108633;28;20039;-81
2023/04/19 01:49:34;;;;;;;11.55;7.75;;;7.60;99.90;;;;;;5122257;28;20031;-81
2023/04/19 01:52:00;;;;;;;12.85;8.00;;;7.40;99.90;;;;;;5121836;27;20042;-81
2023/04/19 01:54:25;;;;;;;11.80;8.15;;;7.40;99.90;;;;;;5099998;28;20052;-80
2023/04/19 01:56:51;;;;;;;9.38;8.35;;;7.40;99.90;;;;;;5090612;28;20119;-81
2023/04/19 01:59:18;;;;;;;10.57;8.05;;;7.30;99.90;;;;;;5125418;27;20035;-81
2023/04/19 02:01:43;;;;;;;9.85;7.82;;;7.30;99.90;;;;;;5108897;27;20044;-81
2023/04/19 02:04:09;;;;;;;10.10;8.05;;;7.30;99.90;;;;;;5113039;27;20050;-82
2023/04/19 02:06:35;;;;;;;12.68;8.13;;;7.30;99.90;;;;;;5114236;27;20043;-80
2023/04/19 02:09:01;;;;;;;14.32;8.48;;;7.30;99.90;;;;;;5111439;27;20042;-81
2023/04/19 02:11:27;;;;;;;10.65;8.02;;;7.30;99.90;;;;;;5095479;27;20080;-81
2023/04/19 02:13:52;;;;;;;12.77;8.23;;;7.20;99.90;;;;;;5112830;27;20401;-81
2023/04/19 02:16:18;;;;;;;9.20;7.80;;;7.20;99.90;;;;;;5094979;27;20039;-81
2023/04/19 02:18:45;;;;;;;11.23;8.32;;;7.50;99.90;;;;;;5129884;27;20070;-81
2023/04/19 02:21:11;;;;;;;11.40;8.48;;;7.10;99.90;;;;;;5111673;27;20059;-82
2023/04/19 02:23:36;;;;;;;10.35;8.32;;;7.80;99.90;;;;;;5106560;28;20108;-81
2023/04/19 02:26:02;;;;;;;12.70;8.32;;;7.00;99.90;;;;;;5110347;28;20047;-82
2023/04/19 02:28:29;;;;;;;11.90;8.52;;;6.90;99.90;;;;;;5095933;27;20120;-82
2023/04/19 02:30:55;;;;;;;10.38;8.77;;;6.90;99.90;;;;;;5093238;27;20054;-82
2023/04/19 02:33:21;;;;;;;11.93;7.93;;;6.80;99.90;;;;;;5109889;27;20107;-81
2023/04/19 02:35:46;;;;;;;10.60;8.52;;;6.70;99.90;;;;;;5129285;27;20059;-81
2023/04/19 02:38:12;;;;;;;10.68;8.52;;;6.70;99.90;;;;;;5130445;27;20051;-82
2023/04/19 02:40:38;;;;;;;12.63;8.10;;;6.70;99.90;;;;;;5129602;27;20042;-81
2023/04/19 02:43:03;;;;;;;12.70;9.52;;;6.60;99.90;;;;;;5111466;27;20043;-81
2023/04/19 02:45:29;;;;;;;11.30;8.73;;;6.60;99.90;;;;;;5130461;27;20133;-81
2023/04/19 02:47:55;;;;;;;12.45;9.20;;;6.60;99.90;;;;;;5130795;27;20041;-81
2023/04/19 02:50:20;;;;;;;11.68;9.40;;;6.60;99.90;;;;;;5109210;27;20100;-81
2023/04/19 02:52:46;;;;;;;11.15;9.23;;;6.50;99.90;;;;;;5091561;28;20481;-81
2023/04/19 02:55:11;;;;;;;12.00;9.07;;;6.50;99.90;;;;;;5099508;27;20067;-82
2023/04/19 02:57:37;;;;;;;15.73;10.15;;;6.50;99.90;;;;;;5107967;27;21698;-82
2023/04/19 03:00:04;;;;;;;11.68;9.20;;;6.40;99.90;;;;;;5109684;27;20083;-80
2023/04/19 03:02:30;;;;;;;11.82;9.23;;;6.40;99.90;;;;;;5111737;27;20049;-81
2023/04/19 03:04:56;;;;;;;12.85;10.20;;;6.40;99.90;;;;;;5111458;27;20051;-81
2023/04/19 03:07:22;;;;;;;12.60;9.70;;;6.40;99.90;;;;;;5111206;27;20047;-81
2023/04/19 03:09:47;;;;;;;14.75;10.10;;;6.30;99.90;;;;;;5108241;27;20431;-81
2023/04/19 03:12:13;;;;;;;15.23;9.80;;;6.30;99.90;;;;;;5108655;27;20047;-81
2023/04/19 03:14:38;;;;;;;14.82;9.98;;;6.20;99.90;;;;;;5109020;27;20473;-81
2023/04/19 03:17:04;;;;;;;14.30;10.00;;;6.20;99.90;;;;;;5104965;27;20039;-81
2023/04/19 03:19:30;;;;;;;15.15;10.38;;;6.20;99.90;;;;;;5102896;27;20043;-81
2023/04/19 03:21:55;;;;;;;13.52;9.52;;;6.20;99.90;;;;;;5104675;27;20150;-81
2023/04/19 03:24:28;;;;;;;13.18;9.77;;;6.10;99.90;;;;;;5107499;27;20054;-81
2023/04/19 03:26:54;;;;;;;17.17;10.80;;;6.30;99.90;;;;;;5091821;28;20476;-81
2023/04/19 03:29:20;;;;;;;13.10;10.00;;;6.10;99.90;;;;;;5114958;27;20047;-81
2023/04/19 03:31:46;;;;;;;13.77;10.05;;;6.10;99.90;;;;;;5109133;27;20865;-80
2023/04/19 03:34:11;;;;;;;14.63;9.88;;;6.10;99.90;;;;;;5108950;27;20043;-81
2023/04/19 03:36:39;;;;;;;12.77;9.60;;;6.00;99.90;;;;;;5111303;27;20047;-82
2023/04/19 03:39:05;;;;;;;14.90;9.65;;;6.30;99.90;;;;;;5106285;27;20047;-81
2023/04/19 03:41:31;;;;;;;13.93;10.25;;;6.00;99.90;;;;;;5125529;27;20039;-81
2023/04/19 03:43:57;;;;;;;13.43;9.10;;;6.00;99.90;;;;;;5105335;28;20046;-80
2023/04/19 03:46:23;;;;;;;12.15;9.38;;;6.00;99.90;;;;;;5097800;27;20043;-82
2023/04/19 03:48:49;;;;;;;10.93;8.38;;;5.90;99.90;;;;;;5104779;27;20060;-80
2023/04/19 03:51:15;;;;;;;13.73;8.60;;;5.90;99.90;;;;;;5108559;27;20382;-81
2023/04/19 03:53:43;;;;;;;10.77;8.15;;;5.90;99.90;;;;;;5127598;27;20146;-82
2023/04/19 03:56:09;;;;;;;14.10;9.80;;;5.90;99.90;;;;;;5089864;27;20179;-81
2023/04/19 03:58:36;;;;;;;9.57;7.88;;;5.90;99.90;;;;;;5127822;27;20054;-81
2023/04/19 04:01:02;;;;;;;11.90;8.05;;;5.80;99.90;;;;;;5092032;27;20801;-81
2023/04/19 04:03:27;;;;;;;10.77;9.13;;;5.80;99.90;;;;;;5110311;27;20466;-82
2023/04/19 04:05:53;;;;;;;10.73;8.73;;;5.80;99.90;;;;;;5092111;27;20124;-81
2023/04/19 04:08:19;;;;;;;13.20;8.52;;;5.70;99.90;;;;;;5110272;27;20432;-81
2023/04/19 04:10:44;;;;;;;10.50;8.30;;;5.70;99.90;;;;;;5109121;27;20075;-82
2023/04/19 04:13:10;;;;;;;10.02;8.15;;;5.70;99.90;;;;;;5109061;27;20046;-81
2023/04/19 04:15:35;;;;;;;10.35;7.70;;;5.70;99.90;;;;;;5107391;27;20078;-81
2023/04/19 04:18:01;;;;;;;9.35;7.88;;;5.70;99.90;;;;;;5107487;27;20039;-81
2023/04/19 04:20:27;;;;;;;13.52;7.85;;;5.60;99.90;;;;;;5108543;27;20054;-81
2023/04/19 04:22:52;;;;;;;10.75;7.72;;;5.60;99.90;;;;;;5093478;27;20732;-80
2023/04/19 04:25:18;;;;;;;10.35;7.93;;;5.60;99.90;;;;;;5109944;27;20465;-81
2023/04/19 04:27:44;;;;;;;11.00;7.60;;;5.60;99.90;;;;;;5123872;27;20389;-81
2023/04/19 04:30:10;;;;;;;12.02;8.30;;;5.60;99.90;;;;;;5105766;28;20054;-81
2023/04/19 04:32:37;;;;;;;13.82;8.43;;;5.60;99.90;;;;;;5125528;27;20039;-82
2023/04/19 04:35:06;;;;;;;8.70;6.97;;;5.60;99.90;;;;;;5127159;27;20054;-82
2023/04/19 04:37:35;;;;;;;8.77;7.32;;;5.60;99.90;;;;;;5109705;27;20453;-81
2023/04/19 04:40:05;;;;;;;12.65;7.53;;;5.60;99.90;;;;;;5092584;28;20039;-81
2023/04/19 04:42:32;;;;;;;9.35;7.45;;;5.50;99.90;;;;;;5109281;27;20078;-81
2023/04/19 04:45:00;;;;;;;11.73;7.32;;;5.60;99.90;;;;;;5101914;27;20090;-80
2023/04/19 04:47:35;;;;;;;8.38;6.72;;;5.50;99.90;;;;;;5108006;27;20051;-80
2023/04/19 04:50:01;;;;;;;12.27;7.88;;;5.50;99.90;;;;;;5109707;27;20125;-80
2023/04/19 04:52:27;;;;;;;11.10;7.50;;;5.50;99.90;;;;;;5109883;27;20051;-80
2023/04/19 04:54:52;;;;;;;11.40;8.05;;;5.50;99.90;;;;;;5107757;28;20053;-81
2023/04/19 04:57:18;;;;;;;10.82;7.40;;;5.50;99.90;;;;;;5103465;28;20134;-82
2023/04/19 04:59:45;;;;;;;12.32;7.90;;;5.50;99.90;;;;;;5095877;27;20031;-81
2023/04/19 05:02:10;;;;;;;10.88;7.30;;;5.40;99.90;;;;;;5108150;27;20055;-79
2023/04/19 05:04:36;;;;;;;9.60;7.30;;;5.40;99.90;;;;;;5125001;28;20476;-81
2023/04/19 05:07:03;;;;;;;10.77;6.93;;;5.40;99.90;;;;;;5108026;28;20103;-82
2023/04/19 05:09:28;;;;;;;8.10;6.45;;;5.40;99.90;;;;;;5108728;28;20817;-81
2023/04/19 05:11:54;;;;;;;10.88;7.45;;;5.40;99.90;;;;;;5128663;28;20138;-81
2023/04/19 05:14:20;;;;;;;12.88;7.35;;;5.40;99.90;;;;;;5107823;28;20078;-82
2023/04/19 05:16:45;;;;;;;12.65;7.47;;;5.40;99.90;;;;;;5124779;28;20092;-81
2023/04/19 05:19:11;;;;;;;9.90;6.85;;;5.40;99.90;;;;;;5101210;28;20067;-82
2023/04/19 05:21:36;;;;;;;9.57;6.88;;;5.50;99.90;;;;;;5108136;28;20035;-84
2023/04/19 05:24:03;;;;;;;7.15;6.05;;;5.50;99.90;;;;;;5089325;28;20039;-82
2023/04/19 05:26:28;;;;;;;11.70;7.22;;;5.50;99.90;;;;;;5110481;27;20047;-82
2023/04/19 05:28:55;;;;;;;9.20;6.82;;;5.60;99.90;;;;;;5109929;28;20119;-82
2023/04/19 05:31:21;;;;;;;9.27;6.38;;;5.90;99.90;;;;;;5106554;28;20402;-82
2023/04/19 05:33:46;;;;;;;9.30;6.10;;;6.20;99.90;;;;;;5093625;27;20097;-81
2023/04/19 05:36:12;;;;;;;8.05;5.88;;;6.40;99.90;;;;;;5107105;28;20096;-81
2023/04/19 05:38:38;;;;;;;10.45;6.85;;;6.50;99.90;;;;;;5122408;27;20047;-81
2023/04/19 05:41:05;;;;;;;9.80;6.10;;;6.60;99.90;;;;;;5132167;27;20470;-82
2023/04/19 05:43:30;;;;;;;8.48;6.60;;;6.80;99.90;;;;;;5113269;27;20043;-80
2023/04/19 05:45:56;;;;;;;7.72;6.47;;;6.90;99.90;;;;;;5113180;27;20051;-81
2023/04/19 05:48:22;;;;;;;6.90;6.20;;;7.10;99.90;;;;;;5131401;27;20746;-82
2023/04/19 05:50:53;;;;;;;8.15;6.20;;;7.50;99.90;;;;;;5113993;27;20043;-82
2023/04/19 05:53:19;;;;;;;6.73;5.50;;;8.00;99.90;;;;;;5106919;28;20043;-82
2023/04/19 05:55:46;;;;;;;10.65;5.95;;;9.00;99.90;;;;;;5109067;27;20277;-81
2023/04/19 05:58:12;;;;;;;6.38;5.30;;;9.40;99.90;;;;;;5112196;27;20436;-82
2023/04/19 06:00:38;;;;;;;8.48;5.75;;;9.80;99.90;;;;;;5104948;27;20036;-82
2023/04/19 06:03:03;;;;;;;6.22;5.03;;;9.20;99.90;;;;;;5115672;27;20048;-82
2023/04/19 06:05:29;;;;;;;8.40;5.55;;;8.50;99.90;;;;;;5099966;27;20083;-81
2023/04/19 06:07:55;;;;;;;8.35;5.32;;;8.00;99.90;;;;;;5131729;27;20062;-80
2023/04/19 06:10:22;;;;;;;6.15;5.05;;;7.60;99.90;;;;;;5113729;27;20047;-84
2023/04/19 06:12:48;;;;;;;7.25;4.47;;;7.30;99.90;;;;;;5113472;27;20489;-84
2023/04/19 06:15:13;;;;;;;5.82;5.00;;;7.60;99.90;;;;;;5112786;27;20043;-82
2023/04/19 06:17:39;;;;;;;6.50;4.82;;;7.10;99.90;;;;;;5131627;27;20042;-82
2023/04/19 06:20:07;;;;;;;6.43;4.97;;;7.10;99.90;;;;;;5096152;27;20043;-83
2023/04/19 06:22:32;;;;;;;8.38;5.00;;;7.00;99.90;;;;;;5096588;27;20051;-82
2023/04/19 06:24:59;;;;;;;5.93;5.00;;;7.10;99.90;;;;;;5095475;27;20101;-82
2023/04/19 06:27:25;;;;;;;7.45;4.55;;;7.10;99.90;;;;;;5112581;27;20086;-81
2023/04/19 06:29:50;;;;;;;8.35;4.95;;;7.10;99.90;;;;;;5110586;27;20077;-82
2023/04/19 06:32:16;;;;;;;8.70;5.15;;;7.10;99.90;;;;;;5099495;28;20046;-82
2023/04/19 06:34:42;;;;;;;5.35;4.63;;;7.20;99.90;;;;;;5091815;28;20052;-82
2023/04/19 06:37:07;;;;;;;5.18;4.47;;;7.20;99.90;;;;;;5095777;27;20079;-82
2023/04/19 06:39:33;;;;;;;6.57;5.03;;;7.30;99.90;;;;;;5095803;27;20058;-82
2023/04/19 06:41:59;;;;;;;6.20;4.47;;;7.40;99.90;;;;;;5113405;27;20146;-82
2023/04/19 06:44:24;;;;;;;6.47;4.90;;;7.40;99.90;;;;;;5096378;27;20043;-82
2023/04/19 06:46:50;;;;;;;5.55;4.38;;;7.50;99.90;;;;;;5099301;28;20555;-85
2023/04/19 06:49:15;;;;;;;6.00;4.22;;;7.60;99.90;;;;;;5104939;27;20047;-86
2023/04/19 06:51:41;;;;;;;5.28;4.50;;;7.70;99.90;;;;;;5097186;28;20048;-85
2023/04/19 06:54:07;;;;;;;5.72;4.30;;;7.70;99.90;;;;;;5106397;27;20063;-84
2023/04/19 06:56:45;;;;;;;7.32;4.32;;;7.80;99.90;;;;;;5111903;27;20474;-85
2023/04/19 06:59:12;;;;;;;6.00;3.85;;;7.90;99.90;;;;;;5129972;27;20415;-81
2023/04/19 07:01:39;;;;;;;7.30;4.85;;;7.90;99.90;;;;;;5131071;27;20043;-85
2023/04/19 07:04:05;;;;;;;6.75;4.05;;;8.00;99.90;;;;;;5095039;27;20485;-81
2023/04/19 07:06:31;;;;;;;5.53;3.88;;;8.10;99.90;;;;;;5096718;27;20055;-85
2023/04/19 07:08:57;;;;;;;6.75;3.63;;;8.30;99.90;;;;;;5104059;27;20443;-88
2023/04/19 07:11:23;;;;;;;4.55;3.70;;;8.50;99.90;;;;;;5101871;27;20043;-86
2023/04/19 07:13:51;;;;;;;4.63;3.15;;;8.90;99.90;;;;;;5110926;27;20034;-85
2023/04/19 07:16:16;;;;;;;5.38;3.20;;;8.50;99.90;;;;;;5110624;27;20078;-86
2023/04/19 07:18:42;;;;;;;4.40;3.42;;;8.60;99.70;;;;;;5111243;27;20074;-88
2023/04/19 07:21:09;;;;;;;5.85;3.30;;;8.70;99.90;;;;;;5093751;27;20043;-87
2023/04/19 07:23:34;;;;;;;3.72;3.20;;;8.80;99.10;;;;;;5094152;27;20073;-86
2023/04/19 07:26:00;;;;;;;4.70;3.05;;;8.80;98.70;;;;;;5107847;28;20051;-87
2023/04/19 07:28:28;;;;;;;4.22;2.67;;;9.10;97.70;;;;;;5073173;28;20630;-87
2023/04/19 07:30:54;;;;;;;5.13;3.08;;;8.90;97.40;;;;;;5090306;28;20046;-86
2023/04/19 07:33:21;;;;;;;4.72;2.83;;;8.70;97.00;;;;;;5089836;28;20051;-87
2023/04/19 07:35:46;;;;;;;3.03;2.50;;;9.10;96.60;;;;;;5074637;28;20102;-88
2023/04/19 07:38:15;;;;;;;4.25;2.58;;;9.20;94.00;;;;;;5090832;28;20098;-86
2023/04/19 07:40:40;;;;;;;3.58;2.78;;;9.30;94.60;;;;;;5076361;27;20047;-86
2023/04/19 07:43:06;;;;;;;2.70;2.50;;;9.40;95.30;;;;;;5080285;28;20043;-86
2023/04/19 07:45:32;;;;;;;3.00;2.53;;;9.80;95.00;;;;;;5092067;28;20161;-87
2023/04/19 07:47:57;;;;;;;2.70;2.50;;;9.60;94.70;;;;;;5074439;28;20050;-88
2023/04/19 07:50:25;;;;;;;4.22;2.60;;;9.70;93.90;;;;;;5091788;28;20096;-87
2023/04/19 07:52:51;;;;;;;3.53;2.60;;;9.80;93.40;;;;;;5091198;28;20149;-86
2023/04/19 07:55:16;;;;;;;3.17;2.35;;;9.90;92.30;;;;;;5074170;28;20139;-88
2023/04/19 07:57:46;;;;;;;2.95;2.40;;;9.90;91.90;;;;;;5090760;28;20050;-86
2023/04/19 08:00:14;;;;;;;2.53;2.20;;;10.00;92.00;;;;;;5096860;27;20051;-86
2023/04/19 08:02:44;;;;;;;10.40;3.75;;;10.10;90.30;;;;;;5111335;27;20092;-85
2023/04/19 08:05:12;;;;;;;3.33;2.33;;;10.20;88.60;;;;;;5110231;27;20671;-86
2023/04/19 08:07:38;;;;;;;3.45;2.28;;;10.30;89.20;;;;;;5109806;27;20092;-86
2023/04/19 08:10:08;;;;;;;3.08;2.60;;;10.30;85.60;;;;;;5111365;27;20545;-86
2023/04/19 08:12:33;;;;;;;4.25;2.47;;;10.40;79.60;;;;;;5111524;27;20065;-86
2023/04/19 08:14:59;;;;;;;2.70;2.13;;;10.50;83.90;;;;;;5093626;27;20035;-87
2023/04/19 08:17:25;;;;;;;3.95;2.53;;;11.30;82.90;;;;;;5093957;27;20134;-87
2023/04/19 08:19:51;;;;;;;4.32;3.20;;;10.70;83.50;;;;;;5093999;27;20397;-87
2023/04/19 08:22:18;;;;;;;4.53;2.65;;;10.70;79.90;;;;;;5090547;27;20035;-87
2023/04/19 08:24:51;;;;;;;3.20;2.90;;;10.70;80.80;;;;;;5091311;28;20055;-86
2023/04/19 08:27:17;;;;;;;4.65;2.90;;;11.20;79.10;;;;;;5090949;28;20058;-87
2023/04/19 08:29:43;;;;;;;5.05;2.85;;;10.80;79.90;;;;;;5073989;28;20051;-87
2023/04/19 08:32:10;;;;;;;3.65;2.97;;;11.30;76.20;;;;;;5090501;28;20055;-87
2023/04/19 08:34:37;;;;;;;3.80;3.20;;;10.80;77.20;;;;;;5073471;28;20086;-87
2023/04/19 08:37:04;;;;;;;3.53;2.70;;;10.80;75.60;;;;;;5073764;28;20108;-87
2023/04/19 08:39:31;;;;;;;3.13;2.83;;;10.90;74.60;;;;;;5073416;28;20402;-86
2023/04/19 08:42:05;;;;;;;3.25;2.65;;;10.90;67.60;;;;;;5090007;28;20151;-87
2023/04/19 08:44:31;;;;;;;2.90;2.60;;;10.90;66.60;;;;;;5090841;28;20566;-87
2023/04/19 08:46:58;;;;;;;4.10;2.85;;;11.00;68.90;;;;;;5108472;28;20509;-87
2023/04/19 08:49:24;;;;;;;3.28;2.97;;;11.20;69.70;;;;;;5090328;28;20043;-86
2023/04/19 08:51:51;;;;;;;3.17;2.75;;;11.30;69.90;;;;;;5074278;27;20046;-86
2023/04/19 08:54:18;;;;;;;5.20;2.45;;;11.50;66.00;;;;;;5087496;28;20468;-88
2023/04/19 08:56:44;;;;;;;4.10;2.30;;;11.50;66.60;;;;;;5129822;27;20043;-88
2023/04/19 08:59:10;;;;;;;3.60;2.33;;;11.50;63.30;;;;;;5109540;28;20130;-87
2023/04/19 09:01:35;;;;;;;3.30;2.80;;;11.50;64.30;;;;;;5128717;27;20085;-87
2023/04/19 09:04:05;;;;;;;4.57;2.80;;;11.60;64.80;;;;;;5109880;28;20125;-87
2023/04/19 09:06:37;;;;;;;2.83;2.38;;;11.70;59.40;;;;;;5110513;28;20046;-88
2023/04/19 09:09:13;;;;;;;;;;;12.00;61.50;;;;;;5091874;28;20731;-87
2023/04/19 09:11:39;;;;;;;3.25;2.30;;;11.80;59.00;;;;;;5117200;28;20356;-86
2023/04/19 09:14:09;;;;;;;3.95;2.30;;;12.40;63.00;;;;;;5090146;28;20131;-87
2023/04/19 09:16:38;;;;;;;3.08;2.20;;;12.00;59.90;;;;;;5089623;28;20059;-87
2023/04/19 09:19:05;;;;;;;3.38;2.22;;;12.00;60.20;;;;;;5073855;28;20371;-87
2023/04/19 09:21:31;;;;;;;2.55;2.20;;;12.00;59.70;;;;;;5090573;28;20465;-86
2023/04/19 09:23:58;;;;;;;2.72;2.30;;;12.00;58.20;;;;;;5108274;28;20078;-87
2023/04/19 09:26:28;;;;;;;7.13;2.53;;;12.50;57.80;;;;;;5090374;28;20050;-87
2023/04/19 09:29:06;;;;;;;3.50;2.20;;;12.70;58.30;;;;;;5078479;28;20850;-87
2023/04/19 09:31:36;;;;;;;4.45;2.53;;;12.20;57.60;;;;;;5110646;28;20051;-87
2023/04/19 09:34:16;;;;;;;2.97;2.45;;;12.30;56.60;;;;;;5109969;28;20051;-87
2023/04/19 09:36:42;;;;;;;3.15;2.40;;;12.40;55.60;;;;;;5096070;28;20052;-88
2023/04/19 09:39:09;;;;;;;7.35;2.47;;;12.50;56.70;;;;;;5069204;28;20092;-87
2023/04/19 09:41:49;;;;;;;2.67;2.30;;;12.60;56.00;;;;;;5086531;28;20048;-87
2023/04/19 09:44:15;;;;;;;2.63;2.20;;;12.60;56.40;;;;;;5084021;28;20052;-87
2023/04/19 09:46:45;;;;;;;2.88;2.00;;;12.60;56.30;;;;;;5063505;28;20052;-87
2023/04/19 09:49:18;;;;;;;2.72;2.20;;;12.60;56.00;;;;;;5058296;28;20040;-87
2023/04/19 09:51:49;;;;;;;4.40;2.65;;;12.60;55.40;;;;;;5068879;28;20974;-86
2023/04/19 09:54:17;;;;;;;3.55;2.00;;;12.60;56.00;;;;;;5063225;28;20048;-87
2023/04/19 09:56:44;;;;;;;4.00;2.20;;;12.70;56.50;;;;;;5068810;28;20047;-85
2023/04/19 09:59:10;;;;;;;3.58;2.15;;;12.70;56.10;;;;;;5086090;28;20566;-86
2023/04/19 10:01:47;;;;;;;2.67;2.10;;;12.80;56.30;;;;;;5085843;28;20139;-86
2023/04/19 10:04:21;;;;;;;2.90;2.00;;;12.90;56.30;;;;;;5069605;28;20044;-87
2023/04/19 10:07:12;;;;;;;2.85;2.03;;;13.00;55.80;;;;;;5086166;28;20059;-87
2023/04/19 10:09:48;;;;;;;2.45;2.15;;;13.20;54.60;;;;;;5066741;28;20079;-88
2023/04/19 10:12:14;;;;;;;2.10;1.90;;;12.90;55.60;;;;;;5049375;28;20127;-87
2023/04/19 10:14:42;;;;;;;5.97;2.20;;;13.30;56.30;;;;;;5065072;28;20044;-86
2023/04/19 10:17:07;;;;;;;2.78;2.00;;;13.10;55.20;;;;;;5049532;28;20143;-87
2023/04/19 10:19:36;;;;;;;3.60;2.15;;;13.20;54.00;;;;;;5048497;28;20185;-86
2023/04/19 10:22:05;;;;;;;2.15;1.95;;;13.20;54.60;;;;;;5069698;28;20105;-86
2023/04/19 10:24:32;;;;;;;2.97;2.38;;;13.10;53.60;;;;;;5075130;28;20052;-87
2023/04/19 10:27:07;;;;;;;2.67;2.20;;;13.20;52.20;;;;;;5079523;28;20048;-87
2023/04/19 10:30:00;;;;;;;3.25;2.08;;;13.40;52.20;;;;;;5068792;28;20059;-87
2023/04/19 10:32:28;;;;;;;3.10;2.20;;;13.00;51.50;;;;;;5053050;28;20052;-86
2023/04/19 10:34:53;;;;;;;3.63;2.08;;;13.20;53.40;;;;;;5069339;28;20432;-87
2023/04/19 10:37:24;;;;;;;2.85;2.28;;;13.30;52.70;;;;;;5087448;28;20054;-87
2023/04/19 10:39:50;;;;;;;3.33;2.03;;;13.50;51.80;;;;;;5075462;28;20048;-86
2023/04/19 10:42:16;;;;;;;2.90;2.05;;;13.50;52.60;;;;;;5075593;28;21226;-87
2023/04/19 10:45:20;;;;;;;2.97;2.20;;;13.70;51.80;;;;;;5075748;28;20123;-87
2023/04/19 10:47:46;;;;;;;3.67;1.98;;;13.60;50.30;;;;;;5074958;28;20103;-87
2023/04/19 10:50:16;;;;;;;3.42;2.33;;;13.60;51.90;;;;;;5109606;27;20129;-88
2023/04/19 10:52:41;;;;;;;2.78;2.03;;;13.90;51.60;;;;;;5086165;28;20420;-89
2023/04/19 10:55:07;;;;;;;2.53;2.30;;;13.80;52.10;;;;;;5102076;27;20107;-87
2023/04/19 10:58:06;;;;;;;2.47;2.05;;;13.90;51.90;;;;;;5096431;27;20401;-87
2023/04/19 11:00:32;;;;;;;2.50;2.25;;;14.10;50.70;;;;;;5107670;27;20043;-88
2023/04/19 11:02:59;;;;;;;2.40;2.20;;;14.00;51.00;;;;;;5086858;28;20124;-87
2023/04/19 11:05:25;;;;;;;7.50;2.40;;;13.90;51.30;;;;;;5093128;28;20051;-89
2023/04/19 11:07:51;;;;;;;4.28;2.28;;;13.80;51.40;;;;;;5074461;28;20048;-86
2023/04/19 11:10:29;;;;;;;2.30;2.10;;;13.90;51.90;;;;;;5096358;27;20070;-86
2023/04/19 11:12:54;;;;;;;1.90;1.80;;;14.10;50.50;;;;;;5095288;27;20386;-86
2023/04/19 11:15:23;;;;;;;3.35;2.08;;;13.90;51.10;;;;;;5085615;27;20039;-89
2023/04/19 11:17:53;;;;;;;2.33;1.80;;;13.90;50.80;;;;;;5111697;27;20080;-86
2023/04/19 11:20:22;;;;;;;2.38;2.08;;;14.20;51.50;;;;;;5111418;27;20110;-84
2023/04/19 11:22:48;;;;;;;2.70;2.30;;;13.90;51.20;;;;;;5128474;27;20069;-83
2023/04/19 11:25:16;;;;;;;2.97;2.13;;;14.00;51.10;;;;;;5094477;27;20822;-83
2023/04/19 11:27:43;;;;;;;2.50;2.05;;;14.20;51.40;;;;;;5112197;27;20049;-84
2023/04/19 11:30:29;;;;;;;2.90;2.30;;;14.00;51.30;;;;;;5111812;27;20100;-84
2023/04/19 11:32:56;;;;;;;2.20;2.00;;;14.00;49.90;;;;;;5111024;27;20055;-85
2023/04/19 11:35:27;;;;;;;2.55;1.98;;;14.00;51.20;;;;;;5110796;27;20510;-84
2023/04/19 11:37:53;;;;;;;2.10;2.00;;;14.00;50.80;;;;;;5103391;28;20083;-86
2023/04/19 11:40:24;;;;;;;2.25;2.05;;;14.10;51.00;;;;;;5091924;28;20468;-85
2023/04/19 11:43:16;;;;;;;4.22;2.35;;;14.20;51.70;;;;;;5093054;27;20394;-85
2023/04/19 11:45:42;;;;;;;2.92;1.95;;;14.30;50.70;;;;;;5104924;27;20054;-87
2023/04/19 11:48:15;;;;;;;5.03;2.00;;;14.40;51.90;;;;;;5084268;27;20036;-86
2023/04/19 11:50:43;;;;;;;4.07;2.30;;;14.30;50.90;;;;;;5115021;27;20051;-86
2023/04/19 11:53:22;;;;;;;3.58;2.30;;;14.30;50.90;;;;;;5073745;27;20143;-85
2023/04/19 11:56:05;;;;;;;2.42;1.95;;;14.30;50.50;;;;;;5091852;28;20039;-88
2023/04/19 11:58:43;;;;;;;2.25;2.05;;;14.30;50.70;;;;;;5093564;27;20144;-87
2023/04/19 12:01:14;;;;;;;3.13;1.90;;;14.30;50.90;;;;;;5094673;27;20042;-92
2023/04/19 12:03:50;;;;;;;4.07;2.10;;;14.30;50.50;;;;;;5094012;27;20047;-81
2023/04/19 12:06:18;;;;;;;2.63;2.30;;;14.60;50.70;;;;;;5094287;27;20107;-85
2023/04/19 12:08:48;;;;;;;3.58;2.55;;;14.50;51.00;;;;;;5109486;27;20605;-86
2023/04/19 12:11:15;;;;;;;4.90;2.50;;;14.40;51.50;;;;;;5108883;27;20035;-85
2023/04/19 12:13:43;;;;;;;3.72;2.53;;;14.30;50.00;;;;;;5110855;27;20091;-84
2023/04/19 12:16:09;;;;;;;3.30;2.15;;;14.30;51.20;;;;;;5106151;27;20167;-84
2023/04/19 12:18:47;;;;;;;4.03;2.88;;;14.40;51.40;;;;;;5104181;27;20085;-86
2023/04/19 12:21:24;;;;;;;3.05;2.50;;;14.50;51.90;;;;;;5110470;27;20089;-88
2023/04/19 12:23:56;;;;;;;3.05;2.75;;;14.60;50.70;;;;;;5110977;27;20119;-85
2023/04/19 12:26:22;;;;;;;2.85;2.55;;;14.60;51.20;;;;;;5129745;27;20039;-83
2023/04/19 12:28:47;;;;;;;3.28;2.45;;;14.50;51.80;;;;;;5108030;27;20049;-83
2023/04/19 12:31:13;;;;;;;2.92;2.50;;;14.60;52.20;;;;;;5105486;27;20157;-83
2023/04/19 12:33:39;;;;;;;3.17;2.67;;;14.50;51.00;;;;;;5077378;28;20355;-83
2023/04/19 12:36:05;;;;;;;3.20;2.90;;;14.60;52.00;;;;;;5100720;27;20096;-83
2023/04/19 12:38:30;;;;;;;4.50;3.00;;;14.70;51.80;;;;;;5110830;27;20099;-84
2023/04/19 12:40:56;;;;;;;3.22;2.83;;;14.80;52.50;;;;;;5110356;27;20520;-83
2023/04/19 12:43:21;;;;;;;3.67;2.78;;;14.70;52.60;;;;;;5127302;27;20039;-84
2023/04/19 12:45:47;;;;;;;4.63;2.90;;;14.60;52.40;;;;;;5109024;27;20054;-84
2023/04/19 12:48:12;;;;;;;3.40;3.10;;;14.50;52.30;;;;;;5109316;27;20135;-84
2023/04/19 12:50:38;;;;;;;3.35;2.72;;;14.40;52.60;;;;;;5104194;28;20050;-84